CheckWX is a tool to help pilots better visualize weather data.  It is not intended as a substitute for an official pre-flight weather briefing.

04:31:48 UTC

CYOJ METAR
High Level Airport
High Level, Canada
Current

32 mins ago

CYOJ 250400Z 27009KT 15SM FEW100 BKN250 06/M13 A2999 RMK AC2CI4 LAST STFD OBS/NXT 251300Z SLP172
Observed
Apr-25 @ 04:00 UTC
Wind
  • 270° at 9 KTS
Visibility
15 SM
Flight Rules
VFR
Cloud Levels
  • Few at 10,000' AGL
  • Broken at 25,000' AGL
Temperature
C / 43°F
Dewpoint
-13°C / 9°F
Humidity
24%
Altimeter
29.99" Hg
Pressure
1015.62 hPa
Previous

2 hours ago

CYOJ 250300Z 28009G15KT 240V310 15SM FEW100 BKN260 08/M13 A2997 RMK AC2CI4 SLP167
Observed
Apr-25 @ 03:00 UTC
Wind
  • 280° at 9 KTS
  • Gusting to 15 KTS
Visibility
15 SM
Flight Rules
VFR
Cloud Levels
  • Few at 10,000' AGL
  • Broken at 26,000' AGL
Temperature
C / 46°F
Dewpoint
-13°C / 9°F
Humidity
21%
Altimeter
29.97" Hg
Pressure
1014.92 hPa
Previous

3 hours ago

CYOJ 250200Z 28008G17KT 240V320 15SM SCT100 BKN260 09/M13 A2995 RMK AC3CI3 SLP160
Observed
Apr-25 @ 02:00 UTC
Wind
  • 280° at 8 KTS
  • Gusting to 17 KTS
Visibility
15 SM
Flight Rules
VFR
Cloud Levels
  • Scattered at 10,000' AGL
  • Broken at 26,000' AGL
Temperature
C / 48°F
Dewpoint
-13°C / 9°F
Humidity
20%
Altimeter
29.95" Hg
Pressure
1014.22 hPa